Time,TemperatureF,DewpointF,PressureIn,WindDirection,WindDirectionDegrees,WindSpeedMPH,WindSpeedGustMPH,Humidity,HourlyPrecipIn,Conditions,Clouds,dailyrainin,SoftwareType,DateUTC
2013-05-06 00:14:00,37.6,36.3,30.20,SSW,202,0.0,-999.0,95,-99.99,,,0.00,Acu-Link.com,2013-05-06 04:14:00,
2013-05-06 00:29:00,38.7,37.4,30.20,SW,225,0.0,-999.0,95,-99.99,,,0.00,Acu-Link.com,2013-05-06 04:29:00,
2013-05-06 00:44:00,40.6,39.8,30.20,NNW,337,0.0,-999.0,97,-99.99,,,0.00,Acu-Link.com,2013-05-06 04:44:00,
2013-05-06 00:59:00,42.6,41.8,30.20,NE,45,0.0,-999.0,97,-99.99,,,0.00,Acu-Link.com,2013-05-06 04:59:00,
2013-05-06 01:14:00,43.3,42.5,30.20,SW,225,0.0,-999.0,97,-99.99,,,0.00,Acu-Link.com,2013-05-06 05:14:00,
2013-05-06 01:29:00,43.7,42.4,30.19,NNW,337,0.0,-999.0,95,-99.99,,,0.00,Acu-Link.com,2013-05-06 05:29:00,
2013-05-06 01:44:00,43.9,42.6,30.18,NE,45,0.0,-999.0,95,-99.99,,,0.00,Acu-Link.com,2013-05-06 05:44:00,
2013-05-06 01:59:00,44.1,42.8,30.19,NE,45,0.0,-999.0,95,-99.99,,,0.00,Acu-Link.com,2013-05-06 05:59:00,
2013-05-06 02:15:00,44.2,42.6,30.19,ESE,112,0.0,-999.0,94,-99.99,,,0.00,Acu-Link.com,2013-05-06 06:15:00,
2013-05-06 02:30:00,44.2,42.6,30.19,ESE,112,0.0,-999.0,94,-99.99,,,0.00,Acu-Link.com,2013-05-06 06:30:00,
2013-05-06 02:45:00,44.1,42.5,30.19,ESE,112,0.0,-999.0,94,-99.99,,,0.00,Acu-Link.com,2013-05-06 06:45:00,
2013-05-06 03:00:00,44.1,42.2,30.19,ESE,112,0.0,-999.0,93,-99.99,,,0.00,Acu-Link.com,2013-05-06 07:00:00,
2013-05-06 03:15:00,44.1,42.5,30.19,East,90,0.0,-999.0,94,-99.99,,,0.00,Acu-Link.com,2013-05-06 07:15:00,
2013-05-06 03:30:00,44.1,42.2,30.19,WSW,247,0.0,-999.0,93,-99.99,,,0.00,Acu-Link.com,2013-05-06 07:30:00,
2013-05-06 03:45:00,44.1,42.2,30.19,ENE,67,1.7,-999.0,93,-99.99,,,0.00,Acu-Link.com,2013-05-06 07:45:00,
2013-05-06 04:00:00,43.9,42.0,30.19,SW,225,1.1,-999.0,93,-99.99,,,0.00,Acu-Link.com,2013-05-06 08:00:00,
2013-05-06 04:15:00,43.9,42.0,30.18,SSW,202,0.0,-999.0,93,-99.99,,,0.00,Acu-Link.com,2013-05-06 08:15:00,
2013-05-06 04:31:00,43.9,42.0,30.19,NW,315,1.1,-999.0,93,-99.99,,,0.00,Acu-Link.com,2013-05-06 08:31:00,
2013-05-06 04:46:00,43.7,41.8,30.18,NE,45,1.7,-999.0,93,-99.99,,,0.00,Acu-Link.com,2013-05-06 08:46:00,
2013-05-06 05:01:00,43.5,41.9,30.18,East,90,0.0,-999.0,94,-99.99,,,0.00,Acu-Link.com,2013-05-06 09:01:00,
2013-05-06 05:16:00,43.5,41.9,30.19,ESE,112,0.0,-999.0,94,-99.99,,,0.00,Acu-Link.com,2013-05-06 09:16:00,
2013-05-06 05:31:00,43.5,41.9,30.20,ESE,112,1.1,-999.0,94,-99.99,,,0.00,Acu-Link.com,2013-05-06 09:31:00,
2013-05-06 05:46:00,43.7,42.1,30.20,ESE,112,1.1,-999.0,94,-99.99,,,0.00,Acu-Link.com,2013-05-06 09:46:00,
2013-05-06 06:01:00,43.9,42.3,30.21,SSE,157,1.7,-999.0,94,-99.99,,,0.00,Acu-Link.com,2013-05-06 10:01:00,
2013-05-06 06:16:00,44.1,42.5,30.22,East,90,0.0,-999.0,94,-99.99,,,0.00,Acu-Link.com,2013-05-06 10:16:00,
2013-05-06 06:31:00,44.1,42.5,30.22,West,270,1.1,-999.0,94,-99.99,,,0.00,Acu-Link.com,2013-05-06 10:31:00,
2013-05-06 06:47:00,44.1,42.2,30.22,SW,225,0.0,-999.0,93,-99.99,,,0.00,Acu-Link.com,2013-05-06 10:47:00,
2013-05-06 07:02:00,44.4,42.5,30.22,South,180,0.0,-999.0,93,-99.99,,,0.00,Acu-Link.com,2013-05-06 11:02:00,
2013-05-06 07:17:00,44.4,42.8,30.22,South,180,0.0,-999.0,94,-99.99,,,0.00,Acu-Link.com,2013-05-06 11:17:00,
2013-05-06 07:32:00,44.4,42.5,30.22,ESE,112,0.0,-999.0,93,-99.99,,,0.00,Acu-Link.com,2013-05-06 11:32:00,
2013-05-06 07:47:00,44.8,42.9,30.23,ESE,112,2.7,-999.0,93,-99.99,,,0.00,Acu-Link.com,2013-05-06 11:47:00,
2013-05-06 08:02:00,44.6,42.7,30.23,East,90,3.7,-999.0,93,-99.99,,,0.00,Acu-Link.com,2013-05-06 12:02:00,
2013-05-06 08:17:00,46.0,43.5,30.23,South,180,0.0,-999.0,91,-99.99,,,0.00,Acu-Link.com,2013-05-06 12:17:00,
2013-05-06 08:32:00,46.4,43.3,30.23,South,180,0.0,-999.0,89,-99.99,,,0.00,Acu-Link.com,2013-05-06 12:32:00,
2013-05-06 08:47:00,47.3,43.6,30.23,NE,45,2.7,-999.0,87,-99.99,,,0.00,Acu-Link.com,2013-05-06 12:47:00,
2013-05-06 09:02:00,48.0,43.1,30.24,SW,225,2.7,-999.0,83,-99.99,,,0.00,Acu-Link.com,2013-05-06 13:02:00,
2013-05-06 09:18:00,47.7,43.4,30.24,SW,225,1.7,-999.0,85,-99.99,,,0.00,Acu-Link.com,2013-05-06 13:18:00,
2013-05-06 09:33:00,49.5,44.2,30.24,SSW,202,1.7,-999.0,82,-99.99,,,0.00,Acu-Link.com,2013-05-06 13:33:00,
2013-05-06 09:48:00,49.1,43.5,30.23,ESE,112,2.7,-999.0,81,-99.99,,,0.00,Acu-Link.com,2013-05-06 13:48:00,
2013-05-06 10:03:00,53.2,45.1,30.23,SW,225,2.2,-999.0,74,-99.99,,,0.00,Acu-Link.com,2013-05-06 14:03:00,
2013-05-06 10:18:00,55.6,45.6,30.22,South,180,3.2,-999.0,69,-99.99,,,0.00,Acu-Link.com,2013-05-06 14:18:00,
2013-05-06 10:33:00,56.3,45.5,30.23,South,180,2.2,-999.0,67,-99.99,,,0.00,Acu-Link.com,2013-05-06 14:33:00,
2013-05-06 10:48:00,56.8,45.6,30.23,SSE,157,2.2,-999.0,66,-99.99,,,0.00,Acu-Link.com,2013-05-06 14:48:00,
2013-05-06 11:03:00,59.9,46.4,30.22,East,90,1.7,-999.0,61,-99.99,,,0.00,Acu-Link.com,2013-05-06 15:03:00,
2013-05-06 11:18:00,63.0,47.5,30.21,SW,225,3.7,-999.0,57,-99.99,,,0.00,Acu-Link.com,2013-05-06 15:18:00,
2013-05-06 11:34:00,65.5,47.9,30.21,SSW,202,2.2,-999.0,53,-99.99,,,0.00,Acu-Link.com,2013-05-06 15:34:00,
2013-05-06 11:49:00,63.9,48.4,30.19,SE,135,2.7,-999.0,57,-99.99,,,0.00,Acu-Link.com,2013-05-06 15:49:00,
2013-05-06 12:04:00,64.9,48.3,30.19,ESE,112,2.7,-999.0,55,-99.99,,,0.00,Acu-Link.com,2013-05-06 16:04:00,
2013-05-06 12:19:00,68.5,48.6,30.18,South,180,1.7,-999.0,49,-99.99,,,0.00,Acu-Link.com,2013-05-06 16:19:00,
2013-05-06 12:34:00,68.5,48.6,30.18,WSW,247,4.2,-999.0,49,-99.99,,,0.00,Acu-Link.com,2013-05-06 16:34:00,
2013-05-06 12:49:00,66.9,49.7,30.17,NNE,22,2.7,-999.0,54,-99.99,,,0.00,Acu-Link.com,2013-05-06 16:49:00,
2013-05-06 13:04:00,67.1,49.9,30.17,NE,45,3.7,-999.0,54,-99.99,,,0.00,Acu-Link.com,2013-05-06 17:04:00,
2013-05-06 13:19:00,71.1,51.5,30.16,South,180,2.2,-999.0,50,-99.99,,,0.00,Acu-Link.com,2013-05-06 17:19:00,
2013-05-06 13:34:00,69.1,50.2,30.16,SW,225,4.7,-999.0,51,-99.99,,,0.00,Acu-Link.com,2013-05-06 17:34:00,
2013-05-06 13:50:00,71.1,51.5,30.15,South,180,2.7,-999.0,50,-99.99,,,0.00,Acu-Link.com,2013-05-06 17:50:00,
2013-05-06 14:05:00,72.3,52.6,30.15,South,180,2.2,-999.0,50,-99.99,,,0.00,Acu-Link.com,2013-05-06 18:05:00,
2013-05-06 14:20:00,73.6,52.7,30.15,SSW,202,4.2,-999.0,48,-99.99,,,0.00,Acu-Link.com,2013-05-06 18:20:00,
2013-05-06 14:35:00,70.7,52.2,30.13,SW,225,1.7,-999.0,52,-99.99,,,0.00,Acu-Link.com,2013-05-06 18:35:00,
2013-05-06 14:50:00,70.0,51.6,30.13,WSW,247,2.7,-999.0,52,-99.99,,,0.00,Acu-Link.com,2013-05-06 18:50:00,
2013-05-06 15:05:00,70.7,51.7,30.12,SW,225,3.7,-999.0,51,-99.99,,,0.00,Acu-Link.com,2013-05-06 19:05:00,
2013-05-06 15:20:00,72.5,51.7,30.12,SW,225,3.2,-999.0,48,-99.99,,,0.00,Acu-Link.com,2013-05-06 19:20:00,
2013-05-06 15:35:00,70.2,51.2,30.11,West,270,3.7,-999.0,51,-99.99,,,0.00,Acu-Link.com,2013-05-06 19:35:00,
2013-05-06 15:50:00,70.5,52.5,30.11,South,180,2.7,-999.0,53,-99.99,,,0.00,Acu-Link.com,2013-05-06 19:50:00,
2013-05-06 16:06:00,71.4,51.8,30.11,ENE,67,1.7,-999.0,50,-99.99,,,0.00,Acu-Link.com,2013-05-06 20:06:00,
2013-05-06 16:21:00,73.0,52.1,30.10,South,180,2.7,-999.0,48,-99.99,,,0.00,Acu-Link.com,2013-05-06 20:21:00,
2013-05-06 16:36:00,72.7,51.9,30.10,SSW,202,3.7,-999.0,48,-99.99,,,0.00,Acu-Link.com,2013-05-06 20:36:00,
2013-05-06 16:51:00,72.0,51.8,30.10,South,180,5.8,-999.0,49,-99.99,,,0.00,Acu-Link.com,2013-05-06 20:51:00,
2013-05-06 17:06:00,69.8,50.8,30.09,SSE,157,3.2,-999.0,51,-99.99,,,0.00,Acu-Link.com,2013-05-06 21:06:00,
2013-05-06 17:21:00,70.3,51.3,30.10,SSW,202,3.2,-999.0,51,-99.99,,,0.00,Acu-Link.com,2013-05-06 21:21:00,
2013-05-06 17:36:00,69.4,51.0,30.09,South,180,3.2,-999.0,52,-99.99,,,0.00,Acu-Link.com,2013-05-06 21:36:00,
2013-05-06 17:51:00,68.7,50.9,30.09,SSE,157,1.7,-999.0,53,-99.99,,,0.00,Acu-Link.com,2013-05-06 21:51:00,
2013-05-06 18:06:00,68.0,51.2,30.09,ESE,112,0.0,-999.0,55,-99.99,,,0.00,Acu-Link.com,2013-05-06 22:06:00,
2013-05-06 18:22:00,66.4,50.7,30.09,SW,225,0.0,-999.0,57,-99.99,,,0.00,Acu-Link.com,2013-05-06 22:22:00,
2013-05-06 18:37:00,65.3,50.1,30.09,East,90,1.7,-999.0,58,-99.99,,,0.00,Acu-Link.com,2013-05-06 22:37:00,
2013-05-06 18:52:00,62.8,49.6,30.09,SW,225,2.2,-999.0,62,-99.99,,,0.00,Acu-Link.com,2013-05-06 22:52:00,
2013-05-06 19:07:00,61.3,49.4,30.09,SSW,202,0.0,-999.0,65,-99.99,,,0.00,Acu-Link.com,2013-05-06 23:07:00,
2013-05-06 19:22:00,59.7,49.1,30.10,South,180,0.0,-999.0,68,-99.99,,,0.00,Acu-Link.com,2013-05-06 23:22:00,
2013-05-06 19:37:00,57.4,49.2,30.10,SSW,202,1.7,-999.0,74,-99.99,,,0.00,Acu-Link.com,2013-05-06 23:37:00,
2013-05-06 19:53:00,55.9,48.4,30.10,SW,225,0.0,-999.0,76,-99.99,,,0.00,Acu-Link.com,2013-05-06 23:53:00,
2013-05-06 20:08:00,54.3,47.6,30.10,ESE,112,0.0,-999.0,78,-99.99,,,0.00,Acu-Link.com,2013-05-07 00:08:00,
2013-05-06 20:23:00,52.9,47.2,30.10,SW,225,0.0,-999.0,81,-99.99,,,0.00,Acu-Link.com,2013-05-07 00:23:00,
2013-05-06 20:38:00,51.6,46.6,30.12,SSW,202,0.0,-999.0,83,-99.99,,,0.00,Acu-Link.com,2013-05-07 00:38:00,
2013-05-06 20:53:00,50.5,46.5,30.11,SW,225,1.7,-999.0,86,-99.99,,,0.00,Acu-Link.com,2013-05-07 00:53:00,
2013-05-06 21:08:00,49.6,45.9,30.12,South,180,0.0,-999.0,87,-99.99,,,0.00,Acu-Link.com,2013-05-07 01:08:00,
2013-05-06 21:23:00,48.9,46.1,30.14,South,180,0.0,-999.0,90,-99.99,,,0.00,Acu-Link.com,2013-05-07 01:23:00,
2013-05-06 21:38:00,48.4,45.9,30.12,SSE,157,0.0,-999.0,91,-99.99,,,0.00,Acu-Link.com,2013-05-07 01:38:00,
2013-05-06 21:53:00,47.7,45.5,30.12,South,180,0.0,-999.0,92,-99.99,,,0.00,Acu-Link.com,2013-05-07 01:53:00,
2013-05-06 22:08:00,48.7,47.3,30.13,SE,135,1.1,-999.0,95,-99.99,,,0.00,Acu-Link.com,2013-05-07 02:08:00,
2013-05-06 22:24:00,49.1,47.7,30.13,SSW,202,1.7,-999.0,95,-99.99,,,0.00,Acu-Link.com,2013-05-07 02:24:00,
2013-05-06 22:39:00,49.3,47.9,30.13,SSW,202,1.1,-999.0,95,-99.99,,,0.00,Acu-Link.com,2013-05-07 02:39:00,
2013-05-06 22:54:00,49.5,48.1,30.12,South,180,0.0,-999.0,95,-99.99,,,0.00,Acu-Link.com,2013-05-07 02:54:00,
2013-05-06 23:09:00,49.5,48.1,30.12,SW,225,1.7,-999.0,95,-99.99,,,0.00,Acu-Link.com,2013-05-07 03:09:00,
2013-05-06 23:24:00,49.3,47.9,30.12,SSW,202,1.1,-999.0,95,-99.99,,,0.00,Acu-Link.com,2013-05-07 03:24:00,
2013-05-06 23:39:00,48.9,47.5,30.11,West,270,0.0,-999.0,95,-99.99,,,0.00,Acu-Link.com,2013-05-07 03:39:00,
2013-05-06 23:54:00,48.6,47.2,30.12,SSW,202,0.0,-999.0,95,-99.99,,,0.00,Acu-Link.com,2013-05-07 03:54:00,